createdAt,value
2022-07-26T00:04:45.615Z,7.53
2022-07-26T00:09:48.540Z,8.55
2022-07-26T00:14:50.950Z,7.75
2022-07-26T00:19:52.724Z,7.93
2022-07-26T00:24:54.533Z,6.80
2022-07-26T00:29:56.594Z,7.63
2022-07-26T00:34:58.379Z,7.85
2022-07-26T00:40:00.254Z,7.57
2022-07-26T00:45:02.563Z,8.43
2022-07-26T00:50:06.847Z,7.68
2022-07-26T00:55:09.033Z,7.82
2022-07-26T01:00:19.616Z,7.78
2022-07-26T01:05:23.078Z,7.40
2022-07-26T01:10:25.507Z,7.88
2022-07-26T01:15:27.527Z,7.25
2022-07-26T01:20:29.329Z,9.13
2022-07-26T01:25:43.648Z,8.30
2022-07-26T01:30:49.104Z,10.07
2022-07-26T01:35:50.979Z,9.73
2022-07-26T01:40:53.126Z,9.35
2022-07-26T01:45:54.965Z,10.35
2022-07-26T01:50:57.235Z,10.50
2022-07-26T01:55:59.033Z,10.13
2022-07-26T02:01:00.812Z,10.02
2022-07-26T02:06:02.695Z,10.35
2022-07-26T02:11:04.704Z,10.77
2022-07-26T02:16:13.284Z,11.98
2022-07-26T02:21:15.157Z,12.37
2022-07-26T02:26:16.930Z,14.48
2022-07-26T02:31:18.735Z,14.75
2022-07-26T02:36:20.568Z,13.63
2022-07-26T02:41:22.475Z,12.50
2022-07-26T02:46:24.495Z,12.55
2022-07-26T02:51:26.754Z,11.07
2022-07-26T02:56:28.730Z,11.25
2022-07-26T03:01:30.847Z,10.77
2022-07-26T03:06:32.789Z,10.57
2022-07-26T03:11:34.554Z,10.82
2022-07-26T03:16:36.350Z,11.80
2022-07-26T03:21:38.189Z,12.70
2022-07-26T03:26:40.103Z,12.77
2022-07-26T03:31:41.872Z,11.05
2022-07-26T03:36:46.540Z,11.73
2022-07-26T03:41:48.368Z,10.52
2022-07-26T03:46:50.321Z,9.13
2022-07-26T03:51:52.086Z,8.02
2022-07-26T03:56:53.874Z,7.10
2022-07-26T04:01:55.754Z,6.63
2022-07-26T04:06:57.616Z,6.53
2022-07-26T04:12:05.509Z,5.45
2022-07-26T04:17:07.295Z,5.82
2022-07-26T04:22:09.086Z,5.63
2022-07-26T04:27:10.892Z,5.32
2022-07-26T04:32:12.634Z,4.85
2022-07-26T04:37:14.469Z,5.35
2022-07-26T04:42:16.227Z,4.60
2022-07-26T04:47:17.989Z,5.15
2022-07-26T04:52:19.778Z,5.03
2022-07-26T04:57:21.539Z,5.82
2022-07-26T05:02:23.633Z,5.28
2022-07-26T05:07:25.542Z,4.78
2022-07-26T05:12:27.285Z,5.10
2022-07-26T05:17:29.096Z,5.10
2022-07-26T05:22:31.027Z,5.25
2022-07-26T05:27:32.799Z,5.32
2022-07-26T05:32:34.566Z,5.35
2022-07-26T05:37:36.782Z,5.07
2022-07-26T05:42:38.602Z,4.65
2022-07-26T05:47:40.633Z,4.30
2022-07-26T05:52:42.467Z,4.15
2022-07-26T05:57:47.486Z,4.40
2022-07-26T06:02:51.621Z,5.85
2022-07-26T06:07:53.495Z,4.05
2022-07-26T06:12:55.295Z,4.15
2022-07-26T06:17:57.058Z,4.55
2022-07-26T06:22:59.471Z,4.07
2022-07-26T06:28:05.468Z,3.90
2022-07-26T06:33:07.829Z,3.72
2022-07-26T06:38:09.716Z,3.70
2022-07-26T06:43:11.539Z,3.70
2022-07-26T06:48:14.305Z,3.72
2022-07-26T06:53:16.504Z,3.40
2022-07-26T06:58:18.253Z,3.67
2022-07-26T07:03:20.060Z,3.33
2022-07-26T07:08:23.414Z,3.70
2022-07-26T07:13:25.253Z,3.10
2022-07-26T07:18:27.122Z,3.38
2022-07-26T07:23:28.983Z,3.58
2022-07-26T07:28:33.698Z,4.40
2022-07-26T07:33:43.711Z,2.72
2022-07-26T07:38:55.165Z,2.63
2022-07-26T07:43:58.459Z,2.70
2022-07-26T07:49:00.320Z,2.78
2022-07-26T07:54:05.400Z,2.95
2022-07-26T07:59:08.056Z,2.50
2022-07-26T08:04:10.495Z,2.90
2022-07-26T08:09:13.202Z,2.20
2022-07-26T08:14:15.205Z,2.30
2022-07-26T08:19:19.791Z,2.50
2022-07-26T08:24:24.358Z,2.20
2022-07-26T08:29:26.184Z,2.58
2022-07-26T08:34:28.086Z,2.25
2022-07-26T08:39:29.854Z,2.42
2022-07-26T08:44:31.674Z,2.55
2022-07-26T08:49:33.515Z,2.28
2022-07-26T08:54:35.982Z,2.03
2022-07-26T08:59:38.158Z,2.63
2022-07-26T09:04:44.614Z,2.42
2022-07-26T09:09:58.692Z,2.05
2022-07-26T09:15:01.646Z,2.25
2022-07-26T09:20:12.212Z,1.90
2022-07-26T09:25:22.027Z,1.70
2022-07-26T09:30:23.812Z,1.63
2022-07-26T09:35:49.545Z,1.75
2022-07-26T09:40:50.789Z,1.60
2022-07-26T09:46:06.915Z,1.90
2022-07-26T09:51:09.360Z,1.60
2022-07-26T09:56:11.743Z,2.00
2022-07-26T10:01:13.535Z,1.50
2022-07-26T10:06:15.435Z,1.58
2022-07-26T10:11:18.902Z,1.67
2022-07-26T10:16:34.496Z,1.80
2022-07-26T10:21:36.457Z,1.88
2022-07-26T10:26:43.287Z,1.83
2022-07-26T10:32:10.612Z,1.90
2022-07-26T10:37:24.219Z,1.90
2022-07-26T10:42:43.102Z,1.63
2022-07-26T10:48:09.518Z,1.50
2022-07-26T10:53:19.701Z,1.65
2022-07-26T10:58:24.083Z,1.80
2022-07-26T11:03:38.698Z,1.77
2022-07-26T11:08:47.781Z,2.28
2022-07-26T11:13:50.034Z,1.70
2022-07-26T11:18:52.479Z,1.83
2022-07-26T11:24:03.621Z,2.05
2022-07-26T11:29:06.812Z,1.77
2022-07-26T11:34:20.674Z,1.67
2022-07-26T11:39:34.065Z,2.15
2022-07-26T11:44:36.378Z,1.90
2022-07-26T11:55:00.132Z,2.10
2022-07-26T12:00:02.399Z,1.70
2022-07-26T12:05:24.672Z,1.92
2022-07-26T12:10:27.749Z,1.90
2022-07-26T12:15:44.439Z,2.30
2022-07-26T12:21:06.367Z,1.70
2022-07-26T12:26:23.319Z,2.00
2022-07-26T12:31:30.586Z,2.40
2022-07-26T12:36:34.098Z,2.75
2022-07-26T12:41:38.784Z,3.00
2022-07-26T12:46:40.715Z,4.50
2022-07-26T12:51:42.535Z,4.20
2022-07-26T12:56:44.303Z,3.85
2022-07-26T13:01:51.187Z,3.70
2022-07-26T13:06:53.073Z,3.08
2022-07-26T13:11:55.920Z,3.13
2022-07-26T13:16:57.756Z,2.60
2022-07-26T13:22:01.079Z,2.55
2022-07-26T13:27:03.568Z,2.85
2022-07-26T13:32:06.166Z,2.80
2022-07-26T13:37:08.484Z,3.00
2022-07-26T13:42:11.293Z,2.50
2022-07-26T13:47:13.176Z,2.80
2022-07-26T13:52:16.842Z,1.90
2022-07-26T13:57:18.847Z,2.40
2022-07-26T14:02:20.756Z,2.58
2022-07-26T14:07:22.668Z,3.08
2022-07-26T14:12:24.510Z,2.80
2022-07-26T14:17:26.318Z,2.72
2022-07-26T14:22:28.203Z,2.60
2022-07-26T14:27:30.025Z,2.03
2022-07-26T14:32:31.971Z,2.08
2022-07-26T14:37:43.504Z,2.13
2022-07-26T14:42:47.298Z,2.63
2022-07-26T14:47:49.196Z,2.53
2022-07-26T14:52:51.032Z,2.50
2022-07-26T14:57:52.887Z,2.50
2022-07-26T15:02:54.772Z,2.20
2022-07-26T15:07:57.021Z,2.30
2022-07-26T15:13:00.368Z,1.70
2022-07-26T15:18:02.185Z,2.60
2022-07-26T15:23:03.970Z,2.15
2022-07-26T15:28:05.838Z,1.83
2022-07-26T15:33:08.133Z,1.85
2022-07-26T15:38:09.915Z,1.33
2022-07-26T15:43:11.719Z,1.50
2022-07-26T15:48:18.340Z,1.40
2022-07-26T15:53:24.248Z,1.60
2022-07-26T15:58:26.938Z,1.08
2022-07-26T16:03:29.063Z,1.10
2022-07-26T16:08:30.961Z,1.42
2022-07-26T16:13:32.731Z,1.30
2022-07-26T16:18:34.548Z,0.80
2022-07-26T16:23:43.807Z,1.15
2022-07-26T16:28:45.772Z,0.90
2022-07-26T16:33:47.581Z,0.90
2022-07-26T16:38:49.769Z,0.88
2022-07-26T16:43:51.634Z,0.70
2022-07-26T16:48:53.484Z,0.70
2022-07-26T16:53:55.349Z,0.60
2022-07-26T16:58:57.149Z,1.42
2022-07-26T17:03:58.974Z,1.40
2022-07-26T17:09:00.781Z,0.77
2022-07-26T17:14:02.614Z,0.63
2022-07-26T17:19:04.484Z,0.60
2022-07-26T17:24:06.601Z,0.98
2022-07-26T17:29:08.846Z,0.85
2022-07-26T17:34:10.946Z,0.88
2022-07-26T17:39:15.588Z,2.30
2022-07-26T17:44:17.659Z,1.15
2022-07-26T17:49:19.605Z,0.90
2022-07-26T17:54:21.816Z,0.80
2022-07-26T17:59:23.679Z,1.02
2022-07-26T18:04:25.426Z,0.90
2022-07-26T18:09:27.256Z,1.33
2022-07-26T18:14:29.104Z,0.90
2022-07-26T18:19:32.942Z,0.98
2022-07-26T18:24:34.712Z,1.05
2022-07-26T18:29:36.494Z,1.02
2022-07-26T18:34:38.423Z,0.90
2022-07-26T18:39:41.367Z,1.15
2022-07-26T18:44:43.245Z,1.20
2022-07-26T18:49:45.187Z,1.08
2022-07-26T18:54:46.999Z,1.60
2022-07-26T18:59:48.992Z,1.42
2022-07-26T19:04:51.011Z,13.77
2022-07-26T19:09:58.168Z,1.27
2022-07-26T19:15:00.702Z,1.33
2022-07-26T19:20:03.862Z,2.05
2022-07-26T19:25:08.996Z,1.60
2022-07-26T19:30:12.060Z,1.10
2022-07-26T19:35:14.019Z,1.35
2022-07-26T19:40:16.066Z,1.27
2022-07-26T19:45:18.049Z,1.30
2022-07-26T19:50:19.878Z,1.38
2022-07-26T19:55:22.647Z,1.45
2022-07-26T20:00:24.473Z,1.40
2022-07-26T20:05:26.341Z,1.55
2022-07-26T20:10:31.988Z,1.70
2022-07-26T20:15:35.427Z,4.15
2022-07-26T20:20:37.442Z,1.70
2022-07-26T20:25:39.264Z,2.25
2022-07-26T20:30:41.258Z,1.88
2022-07-26T20:35:43.215Z,1.65
2022-07-26T20:40:46.733Z,2.58
2022-07-26T20:45:49.257Z,1.98
2022-07-26T20:50:51.110Z,1.80
2022-07-26T20:55:52.893Z,1.83
2022-07-26T21:00:54.821Z,2.28
2022-07-26T21:05:56.755Z,3.05
2022-07-26T21:10:58.528Z,2.10
2022-07-26T21:16:00.818Z,1.70
2022-07-26T21:21:02.612Z,1.98
2022-07-26T21:26:04.433Z,1.85
2022-07-26T21:31:06.250Z,1.73
2022-07-26T21:36:08.070Z,1.73
2022-07-26T21:41:13.455Z,1.50
2022-07-26T21:46:15.575Z,1.48
2022-07-26T21:51:17.630Z,1.67
2022-07-26T21:56:19.571Z,2.00
2022-07-26T22:01:21.469Z,1.60
2022-07-26T22:06:23.310Z,1.65
2022-07-26T22:11:25.242Z,1.75
2022-07-26T22:16:27.337Z,1.70
2022-07-26T22:21:29.131Z,1.67
2022-07-26T22:26:31.212Z,2.45
2022-07-26T22:31:33.509Z,1.35
2022-07-26T22:36:35.423Z,1.65
2022-07-26T22:41:57.539Z,1.23
2022-07-26T22:46:58.913Z,1.70
2022-07-26T22:52:00.723Z,1.33
2022-07-26T22:57:02.539Z,1.27
2022-07-26T23:02:04.707Z,1.85
2022-07-26T23:07:06.745Z,1.45
2022-07-26T23:12:10.294Z,1.25
2022-07-26T23:17:12.040Z,1.10
2022-07-26T23:22:13.805Z,1.60
2022-07-26T23:27:20.016Z,1.40
2022-07-26T23:32:22.219Z,1.73
2022-07-26T23:37:24.037Z,1.50
2022-07-26T23:42:25.805Z,1.30
2022-07-26T23:47:27.621Z,1.52
2022-07-26T23:52:29.445Z,1.70
2022-07-26T23:57:31.210Z,1.35
